North Springfield, VT (05150)

9:54 PM EST on February 09, 2016 (GMT -0500)
Gassetts / North Springfield | | Change Station
CLOSE
Current Station
Personal Weather Station
Location: Chester, VT
Elevation: 594 ft
Nearby Weather Stations

Elev 594 ft 43.34 °N, 72.55 °W | Updated 12 seconds ago

Overcast
Overcast
21.9 °F
Feels Like 22 °F
N
0.0
Wind Variable Wind from SW
Gusts 0.0 mph

Today
High -- | Low -- °F
--% Chance of Precip.
Yesterday
High -- | Low -- °F
Precip. -- in
Pressure 29.58 in
Visibility 10.0 miles
Clouds Overcast 2900 ft
Windchill 22 °F
Dew Point 22 °F
Humidity 99%
Rainfall 0.07 in
Snow Depth Not available.
6:57 AM 5:12 PM
Waxing Crescent, 3% visible
SPECI KVSF 100242Z AUTO 00000KT 10SM OVC029 M06/M07 A2958 RMK AO2 T10561072
Pressure 29.58 in
Visibility 10.0 miles
Clouds Overcast 2900 ft
Windchill 22 °F
Dew Point 22 °F
Humidity 99%
Rainfall 0.07 in
Snow Depth Not available.
6:57 AM 5:12 PM
Waxing Crescent, 3% visible
SPECI KVSF 100242Z AUTO 00000KT 10SM OVC029 M06/M07 A2958 RMK AO2 T10561072

10-Day Weather Forecast

Almanac

Astronomy

Feb. 09, 2016 Rise Set
Actual Time
Civil Twilight
Nautical Twilight
Astronomical Twilight
Moon
Length of Visible Light
Length of Day
Tomorrow will be .
, % of the Moon is Illuminated

Today's Extremes

State Highs State Lows

Community

WunderPhotos

Upload Photos

1,891,786 photos uploaded!

WunderBlog® & News

Nearby

Air Quality

  Air Quality AQ Index Pollutant
Not available.

Snow Depth

Station Depth Elevation

Earthquake Activity

City Distance Mag. Time & Date
Minimum magnitude displayed is 2.5.

Coastal Water Temperatures

Place Temperature

Stations

Nearby Weather Stations

Station Location Temp. Windchill Dew Point Humidity Wind Precip. Elev Updated Type
                   

Watches & Warnings

There are currently no watches in effect.